ITY5EL LIML-LIEO
Flight info
| Callsign | ITY5EL |
|---|---|
| Flight time | 0h 57m |
| Altitude | 33000 |
| Route | GEN DCT ERTEV DCT TORTU DCT OKROK DCT AJO A9 CORSI |
| Aircraft | A320/M-SDE3FGHIRWY/LB1 |
Departure
| Time | 2026-04-28 19:33 |
|---|---|
| Airport | Milano Linate Airport (LIML) |
Arrival
| Time | 2026-04-28 20:31 |
|---|---|
| Airport | Olbia Costa Smeralda Airport (LIEO) |
| Time | Latitude | Longitude | Altitude | Speed | Heading |
|---|---|---|---|---|---|
| 2026-04-28 19:01 | 45.45974 | 9.27967 | 360 ft | 0 kts | 360° |
| 2026-04-28 19:23 | 45.45961 | 9.27967 | 360 ft | 4 kts | 1° |
| 2026-04-28 19:23 | 45.45934 | 9.27966 | 360 ft | 3 kts | 360° |
| 2026-04-28 19:23 | 45.45914 | 9.27965 | 360 ft | 4 kts | 33° |
| 2026-04-28 19:23 | 45.45907 | 9.27942 | 365 ft | 4 kts | 90° |
| 2026-04-28 19:24 | 45.45907 | 9.27904 | 360 ft | 4 kts | 91° |
| 2026-04-28 19:24 | 45.45908 | 9.27892 | 365 ft | 0 kts | 91° |
| 2026-04-28 19:27 | 45.45907 | 9.27900 | 365 ft | 4 kts | 91° |
| 2026-04-28 19:27 | 45.45902 | 9.27972 | 362 ft | 7 kts | 119° |
| 2026-04-28 19:27 | 45.45831 | 9.27983 | 360 ft | 15 kts | 181° |
| 2026-04-28 19:27 | 45.45712 | 9.27981 | 362 ft | 18 kts | 181° |
| 2026-04-28 19:28 | 45.45584 | 9.27980 | 360 ft | 19 kts | 180° |
| 2026-04-28 19:28 | 45.45447 | 9.27977 | 360 ft | 20 kts | 181° |
| 2026-04-28 19:28 | 45.45316 | 9.27927 | 364 ft | 20 kts | 207° |
| 2026-04-28 19:28 | 45.45179 | 9.27869 | 360 ft | 21 kts | 179° |
| 2026-04-28 19:29 | 45.45080 | 9.27879 | 360 ft | 22 kts | 175° |
| 2026-04-28 19:29 | 45.44925 | 9.27911 | 363 ft | 23 kts | 164° |
| 2026-04-28 19:29 | 45.44763 | 9.27947 | 362 ft | 24 kts | 176° |
| 2026-04-28 19:29 | 45.44593 | 9.27966 | 360 ft | 25 kts | 176° |
| 2026-04-28 19:30 | 45.44415 | 9.27986 | 366 ft | 26 kts | 175° |
| 2026-04-28 19:30 | 45.44231 | 9.28005 | 360 ft | 27 kts | 175° |
| 2026-04-28 19:30 | 45.44042 | 9.28026 | 367 ft | 28 kts | 175° |
| 2026-04-28 19:30 | 45.43848 | 9.28046 | 360 ft | 28 kts | 176° |
| 2026-04-28 19:31 | 45.43662 | 9.28066 | 367 ft | 22 kts | 175° |
| 2026-04-28 19:31 | 45.43517 | 9.28082 | 361 ft | 16 kts | 176° |
| 2026-04-28 19:31 | 45.43445 | 9.27999 | 363 ft | 11 kts | 264° |
| 2026-04-28 19:31 | 45.43441 | 9.27928 | 360 ft | 6 kts | 265° |
| 2026-04-28 19:32 | 45.43440 | 9.27858 | 365 ft | 9 kts | 276° |
| 2026-04-28 19:32 | 45.43476 | 9.27817 | 362 ft | 0 kts | 357° |
| 2026-04-28 19:32 | 45.43567 | 9.27808 | 363 ft | 47 kts | 356° |
| 2026-04-28 19:33 | 45.44134 | 9.27748 | 361 ft | 113 kts | 355° |
| 2026-04-28 19:33 | 45.45107 | 9.27646 | 396 ft | 160 kts | 356° |
| 2026-04-28 19:33 | 45.46193 | 9.27562 | 1056 ft | 155 kts | 0° |
| 2026-04-28 19:33 | 45.47220 | 9.27984 | 1608 ft | 160 kts | 39° |
| 2026-04-28 19:34 | 45.47779 | 9.29411 | 1915 ft | 179 kts | 84° |
| 2026-04-28 19:34 | 45.47573 | 9.31223 | 2259 ft | 198 kts | 115° |
| 2026-04-28 19:34 | 45.46690 | 9.32832 | 2637 ft | 216 kts | 133° |
| 2026-04-28 19:34 | 45.45576 | 9.34463 | 2927 ft | 244 kts | 134° |
| 2026-04-28 19:35 | 45.44193 | 9.36016 | 3448 ft | 263 kts | 149° |
| 2026-04-28 19:35 | 45.42563 | 9.37278 | 4300 ft | 266 kts | 151° |
| 2026-04-28 19:35 | 45.40954 | 9.38578 | 5383 ft | 266 kts | 150° |
| 2026-04-28 19:35 | 45.39350 | 9.39926 | 6268 ft | 270 kts | 149° |
| 2026-04-28 19:36 | 45.37731 | 9.41305 | 7085 ft | 273 kts | 149° |
| 2026-04-28 19:36 | 45.36091 | 9.42699 | 7886 ft | 276 kts | 150° |
| 2026-04-28 19:36 | 45.34427 | 9.44103 | 8693 ft | 280 kts | 150° |
| 2026-04-28 19:36 | 45.32742 | 9.45517 | 9488 ft | 283 kts | 150° |
| 2026-04-28 19:37 | 45.31034 | 9.46947 | 10243 ft | 287 kts | 151° |
| 2026-04-28 19:37 | 45.29867 | 9.47920 | 10481 ft | 301 kts | 151° |
| 2026-04-28 19:37 | 45.27328 | 9.50030 | 10741 ft | 332 kts | 151° |
| 2026-04-28 19:37 | 45.25284 | 9.51728 | 11070 ft | 347 kts | 151° |
| 2026-04-28 19:38 | 45.23178 | 9.53477 | 11668 ft | 353 kts | 153° |
| 2026-04-28 19:38 | 45.20877 | 9.54673 | 12292 ft | 355 kts | 172° |
| 2026-04-28 19:38 | 45.18416 | 9.54635 | 12942 ft | 356 kts | 192° |
| 2026-04-28 19:38 | 45.16000 | 9.53820 | 13630 ft | 359 kts | 195° |
| 2026-04-28 19:39 | 45.13563 | 9.52975 | 14252 ft | 362 kts | 195° |
| 2026-04-28 19:39 | 45.11102 | 9.52136 | 14843 ft | 366 kts | 195° |
| 2026-04-28 19:39 | 45.08614 | 9.51297 | 15429 ft | 369 kts | 195° |
| 2026-04-28 19:39 | 45.06104 | 9.50451 | 16028 ft | 373 kts | 195° |
| 2026-04-28 19:40 | 45.03571 | 9.49598 | 16606 ft | 376 kts | 195° |
| 2026-04-28 19:40 | 45.01011 | 9.48740 | 17183 ft | 380 kts | 196° |
| 2026-04-28 19:40 | 44.98428 | 9.47878 | 17729 ft | 383 kts | 195° |
| 2026-04-28 19:40 | 44.95822 | 9.47010 | 18318 ft | 386 kts | 196° |
| 2026-04-28 19:41 | 44.93199 | 9.46136 | 18833 ft | 389 kts | 196° |
| 2026-04-28 19:41 | 44.90551 | 9.45251 | 19342 ft | 393 kts | 196° |
| 2026-04-28 19:41 | 44.87884 | 9.44360 | 19862 ft | 395 kts | 196° |
| 2026-04-28 19:41 | 44.85207 | 9.43461 | 20377 ft | 397 kts | 196° |
| 2026-04-28 19:42 | 44.82505 | 9.42555 | 20842 ft | 401 kts | 196° |
| 2026-04-28 19:42 | 44.79790 | 9.41649 | 20972 ft | 401 kts | 196° |
| 2026-04-28 19:42 | 44.77116 | 9.40762 | 21013 ft | 400 kts | 196° |
| 2026-04-28 19:42 | 44.75287 | 9.40157 | 21024 ft | 400 kts | 196° |
| 2026-04-28 19:43 | 44.71665 | 9.38961 | 21030 ft | 400 kts | 196° |
| 2026-04-28 19:43 | 44.68958 | 9.38064 | 21038 ft | 399 kts | 196° |
| 2026-04-28 19:43 | 44.66257 | 9.37164 | 21076 ft | 401 kts | 196° |
| 2026-04-28 19:43 | 44.63530 | 9.36254 | 21549 ft | 404 kts | 196° |
| 2026-04-28 19:44 | 44.60828 | 9.35359 | 22053 ft | 406 kts | 196° |
| 2026-04-28 19:44 | 44.58068 | 9.34447 | 22549 ft | 408 kts | 196° |
| 2026-04-28 19:44 | 44.55296 | 9.33531 | 23026 ft | 411 kts | 196° |
| 2026-04-28 19:44 | 44.52506 | 9.32610 | 23485 ft | 413 kts | 196° |
| 2026-04-28 19:45 | 44.49701 | 9.31683 | 23873 ft | 416 kts | 196° |
| 2026-04-28 19:45 | 44.46878 | 9.30752 | 24235 ft | 418 kts | 196° |
| 2026-04-28 19:45 | 44.44037 | 9.29819 | 24577 ft | 420 kts | 196° |
| 2026-04-28 19:45 | 44.41186 | 9.28884 | 24950 ft | 422 kts | 196° |
| 2026-04-28 19:46 | 44.38319 | 9.27945 | 25312 ft | 424 kts | 196° |
| 2026-04-28 19:46 | 44.35444 | 9.27001 | 25657 ft | 426 kts | 196° |
| 2026-04-28 19:46 | 44.32549 | 9.26050 | 25999 ft | 428 kts | 196° |
| 2026-04-28 19:46 | 44.29641 | 9.25095 | 26330 ft | 430 kts | 196° |
| 2026-04-28 19:47 | 44.26724 | 9.24136 | 26646 ft | 432 kts | 196° |
| 2026-04-28 19:47 | 44.23791 | 9.23175 | 26944 ft | 434 kts | 196° |
| 2026-04-28 19:47 | 44.20846 | 9.22214 | 27242 ft | 436 kts | 196° |
| 2026-04-28 19:47 | 44.17883 | 9.21248 | 27531 ft | 438 kts | 196° |
| 2026-04-28 19:48 | 44.14909 | 9.20277 | 27812 ft | 440 kts | 196° |
| 2026-04-28 19:48 | 44.11923 | 9.19305 | 28090 ft | 442 kts | 196° |
| 2026-04-28 19:48 | 44.08923 | 9.18331 | 28362 ft | 444 kts | 196° |
| 2026-04-28 19:48 | 44.05907 | 9.17354 | 28623 ft | 446 kts | 196° |
| 2026-04-28 19:49 | 44.02881 | 9.16377 | 28856 ft | 448 kts | 196° |
| 2026-04-28 19:49 | 43.99842 | 9.15396 | 29095 ft | 449 kts | 196° |
| 2026-04-28 19:49 | 43.96788 | 9.14410 | 29327 ft | 451 kts | 196° |
| 2026-04-28 19:49 | 43.93726 | 9.13418 | 29560 ft | 453 kts | 196° |
| 2026-04-28 19:50 | 43.87603 | 9.11429 | 30179 ft | 451 kts | 196° |
| 2026-04-28 19:50 | 43.84546 | 9.10441 | 30443 ft | 451 kts | 195° |
| 2026-04-28 19:50 | 43.81494 | 9.09457 | 30704 ft | 450 kts | 195° |
| 2026-04-28 19:51 | 43.78439 | 9.08476 | 30970 ft | 450 kts | 195° |
| 2026-04-28 19:51 | 43.75390 | 9.07504 | 31235 ft | 450 kts | 195° |
| 2026-04-28 19:51 | 43.72346 | 9.06533 | 31508 ft | 449 kts | 195° |
| 2026-04-28 19:51 | 43.69304 | 9.05560 | 31782 ft | 448 kts | 196° |
| 2026-04-28 19:52 | 43.66270 | 9.04587 | 32062 ft | 447 kts | 195° |
| 2026-04-28 19:52 | 43.63239 | 9.03616 | 32336 ft | 447 kts | 196° |
| 2026-04-28 19:52 | 43.60214 | 9.02647 | 32614 ft | 446 kts | 196° |
| 2026-04-28 19:52 | 43.57193 | 9.01676 | 32888 ft | 446 kts | 196° |
| 2026-04-28 19:53 | 43.54172 | 9.00709 | 33029 ft | 446 kts | 196° |
| 2026-04-28 19:53 | 43.48131 | 8.98788 | 33053 ft | 445 kts | 196° |
| 2026-04-28 19:54 | 43.42096 | 8.96872 | 33050 ft | 445 kts | 195° |
| 2026-04-28 19:54 | 43.35974 | 8.95498 | 33050 ft | 448 kts | 187° |
| 2026-04-28 19:55 | 43.29752 | 8.94782 | 33042 ft | 448 kts | 187° |
| 2026-04-28 19:55 | 43.23575 | 8.94064 | 33025 ft | 448 kts | 187° |
| 2026-04-28 19:56 | 43.17360 | 8.93343 | 33025 ft | 448 kts | 187° |
| 2026-04-28 19:56 | 43.11140 | 8.92625 | 33028 ft | 449 kts | 187° |
| 2026-04-28 19:57 | 43.04919 | 8.91906 | 33023 ft | 449 kts | 187° |
| 2026-04-28 19:57 | 42.98698 | 8.91195 | 33020 ft | 448 kts | 187° |
| 2026-04-28 19:58 | 42.92479 | 8.90483 | 33021 ft | 448 kts | 187° |
| 2026-04-28 19:58 | 42.86266 | 8.89769 | 33010 ft | 448 kts | 187° |
| 2026-04-28 19:59 | 42.80053 | 8.89051 | 33003 ft | 448 kts | 187° |
| 2026-04-28 19:59 | 42.73839 | 8.88338 | 32997 ft | 448 kts | 187° |
| 2026-04-28 20:00 | 42.67627 | 8.87627 | 32988 ft | 448 kts | 187° |
| 2026-04-28 20:00 | 42.61419 | 8.86920 | 32985 ft | 448 kts | 187° |
| 2026-04-28 20:01 | 42.55211 | 8.86224 | 32991 ft | 448 kts | 187° |
| 2026-04-28 20:01 | 42.49000 | 8.85519 | 32992 ft | 448 kts | 187° |
| 2026-04-28 20:02 | 42.42791 | 8.84815 | 32993 ft | 448 kts | 187° |
| 2026-04-28 20:02 | 42.36581 | 8.84121 | 32998 ft | 448 kts | 187° |
| 2026-04-28 20:03 | 42.30365 | 8.83422 | 33006 ft | 448 kts | 187° |
| 2026-04-28 20:03 | 42.24149 | 8.82720 | 32715 ft | 448 kts | 187° |
| 2026-04-28 20:03 | 42.21086 | 8.82374 | 32461 ft | 448 kts | 187° |
| 2026-04-28 20:04 | 42.17982 | 8.82023 | 32205 ft | 448 kts | 187° |
| 2026-04-28 20:04 | 42.14873 | 8.81678 | 31944 ft | 448 kts | 187° |
| 2026-04-28 20:04 | 42.11762 | 8.81332 | 31693 ft | 449 kts | 187° |
| 2026-04-28 20:04 | 42.08648 | 8.80983 | 31446 ft | 450 kts | 187° |
| 2026-04-28 20:05 | 42.05525 | 8.80633 | 31185 ft | 450 kts | 186° |
| 2026-04-28 20:05 | 42.02402 | 8.80281 | 30938 ft | 451 kts | 186° |
| 2026-04-28 20:05 | 41.99275 | 8.79929 | 30693 ft | 451 kts | 186° |
| 2026-04-28 20:05 | 41.96147 | 8.79584 | 30450 ft | 452 kts | 186° |
| 2026-04-28 20:06 | 41.93012 | 8.79237 | 30210 ft | 452 kts | 186° |
| 2026-04-28 20:06 | 41.89876 | 8.78890 | 29950 ft | 453 kts | 186° |
| 2026-04-28 20:06 | 41.86735 | 8.78539 | 29668 ft | 453 kts | 186° |
| 2026-04-28 20:06 | 41.83592 | 8.78184 | 29380 ft | 453 kts | 186° |
| 2026-04-28 20:07 | 41.80457 | 8.77836 | 29099 ft | 451 kts | 186° |
| 2026-04-28 20:07 | 41.78339 | 8.77801 | 28908 ft | 452 kts | 177° |
| 2026-04-28 20:07 | 41.74312 | 8.79154 | 28544 ft | 454 kts | 156° |
| 2026-04-28 20:07 | 41.71560 | 8.81223 | 28279 ft | 454 kts | 150° |
| 2026-04-28 20:08 | 41.68859 | 8.83409 | 28016 ft | 453 kts | 150° |
| 2026-04-28 20:08 | 41.66176 | 8.85603 | 27751 ft | 451 kts | 150° |
| 2026-04-28 20:08 | 41.63505 | 8.87802 | 27478 ft | 448 kts | 150° |
| 2026-04-28 20:08 | 41.60919 | 8.89935 | 27204 ft | 425 kts | 150° |
| 2026-04-28 20:09 | 41.58474 | 8.91948 | 26946 ft | 401 kts | 150° |
| 2026-04-28 20:09 | 41.56153 | 8.93844 | 26691 ft | 381 kts | 150° |
| 2026-04-28 20:09 | 41.53945 | 8.95637 | 26437 ft | 362 kts | 151° |
| 2026-04-28 20:09 | 41.51830 | 8.97344 | 26185 ft | 350 kts | 151° |
| 2026-04-28 20:10 | 41.49749 | 8.99017 | 25945 ft | 347 kts | 151° |
| 2026-04-28 20:10 | 41.47691 | 9.00672 | 25704 ft | 345 kts | 151° |
| 2026-04-28 20:10 | 41.45645 | 9.02321 | 25463 ft | 343 kts | 151° |
| 2026-04-28 20:10 | 41.43608 | 9.03963 | 25221 ft | 342 kts | 151° |
| 2026-04-28 20:11 | 41.41575 | 9.05600 | 24972 ft | 340 kts | 151° |
| 2026-04-28 20:11 | 41.39554 | 9.07229 | 24663 ft | 338 kts | 151° |
| 2026-04-28 20:11 | 41.37548 | 9.08847 | 24288 ft | 336 kts | 151° |
| 2026-04-28 20:11 | 41.35549 | 9.10460 | 23947 ft | 333 kts | 151° |
| 2026-04-28 20:12 | 41.33588 | 9.12043 | 23598 ft | 330 kts | 151° |
| 2026-04-28 20:12 | 41.31631 | 9.13623 | 23168 ft | 328 kts | 151° |
| 2026-04-28 20:12 | 41.29685 | 9.15188 | 22762 ft | 326 kts | 151° |
| 2026-04-28 20:12 | 41.28403 | 9.16217 | 22501 ft | 324 kts | 151° |
| 2026-04-28 20:13 | 41.25831 | 9.18282 | 21976 ft | 322 kts | 151° |
| 2026-04-28 20:13 | 41.23920 | 9.19817 | 21591 ft | 320 kts | 151° |
| 2026-04-28 20:13 | 41.22017 | 9.21343 | 21217 ft | 318 kts | 151° |
| 2026-04-28 20:13 | 41.20125 | 9.22860 | 20853 ft | 317 kts | 151° |
| 2026-04-28 20:14 | 41.18245 | 9.24364 | 20487 ft | 315 kts | 151° |
| 2026-04-28 20:14 | 41.16370 | 9.25862 | 20130 ft | 314 kts | 151° |
| 2026-04-28 20:14 | 41.14506 | 9.27349 | 19780 ft | 312 kts | 151° |
| 2026-04-28 20:14 | 41.13275 | 9.28331 | 19558 ft | 311 kts | 151° |
| 2026-04-28 20:15 | 41.11426 | 9.29808 | 19224 ft | 310 kts | 151° |
| 2026-04-28 20:15 | 41.09582 | 9.31279 | 18897 ft | 309 kts | 151° |
| 2026-04-28 20:15 | 41.07750 | 9.32750 | 18576 ft | 307 kts | 150° |
| 2026-04-28 20:15 | 41.05962 | 9.34298 | 18244 ft | 307 kts | 148° |
| 2026-04-28 20:16 | 41.03644 | 9.36423 | 17770 ft | 305 kts | 147° |
| 2026-04-28 20:16 | 41.02472 | 9.37509 | 17532 ft | 304 kts | 149° |
| 2026-04-28 20:16 | 41.00573 | 9.38615 | 17196 ft | 296 kts | 172° |
| 2026-04-28 20:16 | 40.98554 | 9.38579 | 17018 ft | 290 kts | 197° |
| 2026-04-28 20:17 | 40.96749 | 9.37468 | 17027 ft | 288 kts | 219° |
| 2026-04-28 20:17 | 40.95405 | 9.35526 | 16980 ft | 289 kts | 236° |
| 2026-04-28 20:17 | 40.94239 | 9.33323 | 16472 ft | 295 kts | 236° |
| 2026-04-28 20:17 | 40.93084 | 9.31112 | 15969 ft | 295 kts | 236° |
| 2026-04-28 20:18 | 40.91929 | 9.28899 | 15479 ft | 290 kts | 236° |
| 2026-04-28 20:18 | 40.90791 | 9.26723 | 14983 ft | 285 kts | 236° |
| 2026-04-28 20:18 | 40.89670 | 9.24583 | 14509 ft | 281 kts | 236° |
| 2026-04-28 20:18 | 40.88563 | 9.22475 | 14037 ft | 277 kts | 236° |
| 2026-04-28 20:19 | 40.87470 | 9.20392 | 13536 ft | 274 kts | 236° |
| 2026-04-28 20:19 | 40.86388 | 9.18334 | 13013 ft | 271 kts | 236° |
| 2026-04-28 20:19 | 40.85317 | 9.16304 | 12499 ft | 268 kts | 236° |
| 2026-04-28 20:19 | 40.84259 | 9.14301 | 11992 ft | 265 kts | 235° |
| 2026-04-28 20:20 | 40.83209 | 9.12320 | 11495 ft | 261 kts | 235° |
| 2026-04-28 20:20 | 40.82174 | 9.10369 | 11006 ft | 258 kts | 235° |
| 2026-04-28 20:20 | 40.81150 | 9.08436 | 10524 ft | 255 kts | 234° |
| 2026-04-28 20:20 | 40.80141 | 9.06531 | 10049 ft | 252 kts | 234° |
| 2026-04-28 20:21 | 40.79141 | 9.04651 | 9536 ft | 248 kts | 234° |
| 2026-04-28 20:21 | 40.78156 | 9.02801 | 9022 ft | 245 kts | 234° |
| 2026-04-28 20:21 | 40.77186 | 9.00975 | 8509 ft | 241 kts | 234° |
| 2026-04-28 20:21 | 40.76200 | 8.99196 | 8010 ft | 240 kts | 226° |
| 2026-04-28 20:22 | 40.74810 | 8.98002 | 7520 ft | 243 kts | 197° |
| 2026-04-28 20:22 | 40.73134 | 8.97793 | 7094 ft | 244 kts | 171° |
| 2026-04-28 20:22 | 40.71601 | 8.98600 | 7027 ft | 233 kts | 146° |
| 2026-04-28 20:22 | 40.70526 | 9.00156 | 7034 ft | 233 kts | 120° |
| 2026-04-28 20:23 | 40.70076 | 9.02193 | 7036 ft | 232 kts | 95° |
| 2026-04-28 20:23 | 40.70045 | 9.04301 | 7040 ft | 229 kts | 94° |
| 2026-04-28 20:23 | 40.70018 | 9.06398 | 7038 ft | 229 kts | 94° |
| 2026-04-28 20:23 | 40.69986 | 9.08493 | 6993 ft | 229 kts | 94° |
| 2026-04-28 20:24 | 40.69952 | 9.10584 | 6870 ft | 226 kts | 94° |
| 2026-04-28 20:24 | 40.69948 | 9.12649 | 6750 ft | 226 kts | 87° |
| 2026-04-28 20:24 | 40.70325 | 9.14665 | 6637 ft | 229 kts | 69° |
| 2026-04-28 20:24 | 40.71135 | 9.16476 | 6516 ft | 230 kts | 58° |
| 2026-04-28 20:25 | 40.72041 | 9.18215 | 6390 ft | 230 kts | 58° |
| 2026-04-28 20:25 | 40.72966 | 9.19935 | 6279 ft | 230 kts | 53° |
| 2026-04-28 20:25 | 40.73959 | 9.21598 | 6045 ft | 231 kts | 55° |
| 2026-04-28 20:25 | 40.74900 | 9.23312 | 5711 ft | 231 kts | 57° |
| 2026-04-28 20:26 | 40.75826 | 9.25061 | 5361 ft | 233 kts | 57° |
| 2026-04-28 20:26 | 40.76755 | 9.26823 | 5004 ft | 234 kts | 57° |
| 2026-04-28 20:26 | 40.77683 | 9.28581 | 4633 ft | 231 kts | 56° |
| 2026-04-28 20:26 | 40.78585 | 9.30291 | 4287 ft | 223 kts | 56° |
| 2026-04-28 20:27 | 40.79455 | 9.31942 | 3954 ft | 216 kts | 56° |
| 2026-04-28 20:27 | 40.80307 | 9.33559 | 3626 ft | 214 kts | 56° |
| 2026-04-28 20:27 | 40.81150 | 9.35160 | 3335 ft | 211 kts | 57° |
| 2026-04-28 20:27 | 40.81974 | 9.36726 | 2980 ft | 203 kts | 56° |
| 2026-04-28 20:28 | 40.82762 | 9.38223 | 2665 ft | 195 kts | 56° |
| 2026-04-28 20:28 | 40.83523 | 9.39670 | 2372 ft | 188 kts | 56° |
| 2026-04-28 20:28 | 40.84251 | 9.41055 | 2084 ft | 179 kts | 56° |
| 2026-04-28 20:28 | 40.84945 | 9.42377 | 1809 ft | 171 kts | 55° |
| 2026-04-28 20:29 | 40.85581 | 9.43603 | 1605 ft | 155 kts | 56° |
| 2026-04-28 20:29 | 40.86167 | 9.44762 | 1336 ft | 148 kts | 55° |
| 2026-04-28 20:29 | 40.86751 | 9.45858 | 1088 ft | 145 kts | 55° |
| 2026-04-28 20:29 | 40.87320 | 9.46947 | 869 ft | 143 kts | 55° |
| 2026-04-28 20:30 | 40.87886 | 9.48023 | 669 ft | 142 kts | 55° |
| 2026-04-28 20:30 | 40.88453 | 9.49081 | 445 ft | 141 kts | 55° |
| 2026-04-28 20:30 | 40.89016 | 9.50136 | 231 ft | 141 kts | 57° |
| 2026-04-28 20:30 | 40.89568 | 9.51192 | 37 ft | 134 kts | 56° |
| 2026-04-28 20:31 | 40.90004 | 9.52030 | 33 ft | 85 kts | 55° |
| 2026-04-28 20:31 | 40.90248 | 9.52493 | 35 ft | 46 kts | 55° |
| 2026-04-28 20:31 | 40.90398 | 9.52690 | 34 ft | 24 kts | 1° |
| 2026-04-28 20:31 | 40.90452 | 9.52598 | 34 ft | 4 kts | 274° |
| 2026-04-28 20:32 | 40.90452 | 9.52597 | 34 ft | 0 kts | 274° |
| 2026-04-28 20:32 | 40.90452 | 9.52592 | 34 ft | 4 kts | 274° |
| 2026-04-28 20:32 | 40.90454 | 9.52518 | 34 ft | 8 kts | 264° |
| 2026-04-28 20:32 | 40.90423 | 9.52435 | 34 ft | 10 kts | 234° |
| 2026-04-28 20:33 | 40.90380 | 9.52355 | 34 ft | 12 kts | 235° |
| 2026-04-28 20:33 | 40.90321 | 9.52242 | 33 ft | 18 kts | 235° |
| 2026-04-28 20:33 | 40.90248 | 9.52102 | 34 ft | 19 kts | 236° |
| 2026-04-28 20:33 | 40.90183 | 9.51972 | 34 ft | 11 kts | 244° |
| 2026-04-28 20:34 | 40.90179 | 9.51890 | 34 ft | 9 kts | 282° |
| 2026-04-28 20:34 | 40.90202 | 9.51806 | 34 ft | 9 kts | 314° |
| 2026-04-28 20:34 | 40.90214 | 9.51746 | 34 ft | 7 kts | 238° |
| 2026-04-28 20:34 | 40.90204 | 9.51700 | 34 ft | 3 kts | 315° |
| 2026-04-28 20:35 | 40.90230 | 9.51677 | 34 ft | 3 kts | 325° |
| 2026-04-28 20:35 | 40.90244 | 9.51665 | 34 ft | 2 kts | 325° |
| 2026-04-28 20:35 | 40.90247 | 9.51661 | 34 ft | 0 kts | 325° |
| 2026-04-28 20:35 | 40.90249 | 9.51660 | 34 ft | 0 kts | 325° |
| 2026-04-28 20:36 | 40.90250 | 9.51659 | 34 ft | 0 kts | 327° |